Terminal Aerodrome Forecast
Issued by NWS Atlanta, GA

Home | Current Version | Previous Version | Text Only | Print | Product List | Glossary On
Versions: 1 2 3 4 5 6 7 8 9 10 11 12 13 14 15 16 17 18 19 20 21 22 23 24 25 26 27 28 29 30 31 32 33 34 35 36 37 38 39
000
FTAK31 PAJN 122300
TAFAHN
TAF
PAHN 122322Z 1300/1324 12005KT 4SM -RA BR SCT005 OVC010
      TEMPO 1300/1304 2SM -RA BR BKN005
     FM130900 09004KT 3SM -RA BR BKN006 OVC012
     FM132200 12008KT P6SM VCSH SCT008 BKN015 OVC035
      AMD LTD TO CLD VIS AND WIND=

USA.gov is the U.S. government's official web portal to all federal, state and local government web resources and services.